Time;durP1;ratioP1;P1;durP2;ratioP2;P2;SDS_P1;SDS_P2;PMS_P1;PMS_P2;Temp;Humidity;BMP_temperature;BMP_pressure;BME280_temperature;BME280_humidity;BME280_pressure;Samples;Min_cycle;Max_cycle;Signal;HPM_P1;HPM_P2
2022/09/20 00:01:09;;;;;;;11.13;1.70;;;9.90;99.90;;;;;;5095378;28;20182;-77
2022/09/20 00:03:36;;;;;;;8.13;2.00;;;9.90;99.90;;;;;;5095094;28;20186;-77
2022/09/20 00:06:04;;;;;;;8.43;1.73;;;9.90;99.90;;;;;;5093945;28;20713;-78
2022/09/20 00:08:29;;;;;;;5.60;1.90;;;9.90;99.90;;;;;;5094567;28;20181;-77
2022/09/20 00:11:14;;;;;;;8.80;2.17;;;9.90;99.90;;;;;;5095108;28;20183;-77
2022/09/20 00:13:41;;;;;;;6.90;1.90;;;9.90;99.90;;;;;;5094985;28;20504;-76
2022/09/20 00:16:10;;;;;;;5.87;1.67;;;9.90;99.90;;;;;;5095553;28;20174;-77
2022/09/20 00:18:36;;;;;;;5.60;2.07;;;9.90;99.90;;;;;;5095442;28;20578;-76
2022/09/20 00:21:02;;;;;;;12.80;2.27;;;9.90;99.90;;;;;;5094303;28;20281;-76
2022/09/20 00:23:29;;;;;;;6.70;2.00;;;9.90;99.90;;;;;;5095228;28;20186;-77
2022/09/20 00:25:59;;;;;;;6.10;1.70;;;9.90;99.90;;;;;;5094953;28;20197;-77
2022/09/20 00:28:26;;;;;;;7.17;1.77;;;9.90;99.90;;;;;;5093389;28;20184;-77
2022/09/20 00:30:53;;;;;;;5.50;1.80;;;9.90;99.90;;;;;;5091077;28;20194;-78
2022/09/20 00:33:20;;;;;;;7.07;1.60;;;9.90;99.90;;;;;;5093416;28;20189;-77
2022/09/20 00:35:46;;;;;;;4.03;1.97;;;9.90;99.90;;;;;;5093937;28;20166;-77
2022/09/20 00:38:12;;;;;;;6.23;1.90;;;10.00;99.90;;;;;;5094359;28;20234;-76
2022/09/20 00:40:39;;;;;;;7.97;2.20;;;9.90;99.90;;;;;;5093549;28;20647;-76
2022/09/20 00:43:05;;;;;;;9.40;2.53;;;10.00;99.90;;;;;;5094301;28;20202;-77
2022/09/20 00:45:30;;;;;;;4.37;2.10;;;10.00;99.90;;;;;;5094009;28;20197;-77
2022/09/20 00:48:04;;;;;;;5.67;2.20;;;10.00;99.90;;;;;;5092485;28;20712;-77
2022/09/20 00:50:47;;;;;;;6.87;3.07;;;10.00;99.90;;;;;;5092273;28;20194;-77
2022/09/20 00:53:20;;;;;;;2.67;1.60;;;10.10;99.90;;;;;;5093930;28;20750;-77
2022/09/20 00:55:55;;;;;;;6.07;2.60;;;10.10;99.90;;;;;;5094180;28;20158;-77
2022/09/20 00:58:23;;;;;;;7.67;2.57;;;10.10;99.90;;;;;;5094532;28;20161;-77
2022/09/20 01:00:51;;;;;;;10.40;2.50;;;10.20;99.90;;;;;;5092326;28;20194;-77
2022/09/20 01:03:21;;;;;;;5.30;2.33;;;10.10;99.90;;;;;;5094217;28;20193;-77
2022/09/20 01:05:48;;;;;;;6.50;2.10;;;10.20;99.90;;;;;;5094832;28;20620;-78
2022/09/20 01:08:13;;;;;;;3.17;2.47;;;10.20;99.90;;;;;;5094675;28;20170;-77
2022/09/20 01:10:39;;;;;;;7.43;3.13;;;10.20;99.90;;;;;;5093777;28;20277;-76
2022/09/20 01:13:05;;;;;;;6.27;1.93;;;10.20;99.90;;;;;;5094273;28;20178;-77
2022/09/20 01:15:31;;;;;;;8.20;2.53;;;10.20;99.90;;;;;;5094145;28;20174;-77
2022/09/20 01:18:01;;;;;;;5.60;2.00;;;10.20;99.90;;;;;;5094353;28;20543;-77
2022/09/20 01:20:32;;;;;;;5.73;1.40;;;10.30;99.90;;;;;;5094246;28;20194;-77
2022/09/20 01:23:09;;;;;;;3.63;1.50;;;10.30;99.90;;;;;;5094031;28;20209;-77
2022/09/20 01:26:02;;;;;;;7.83;1.20;;;10.30;99.90;;;;;;5093333;28;20630;-77
2022/09/20 01:28:28;;;;;;;7.23;2.10;;;10.30;99.90;;;;;;5093741;28;20235;-77
2022/09/20 01:31:15;;;;;;;7.27;1.67;;;10.20;99.90;;;;;;5093945;28;20239;-77
2022/09/20 01:34:01;;;;;;;5.13;1.40;;;10.20;99.90;;;;;;5092048;28;20592;-75
2022/09/20 01:36:48;;;;;;;4.23;1.30;;;10.20;99.90;;;;;;5093441;28;20162;-77
2022/09/20 01:40:02;;;;;;;6.53;1.43;;;10.20;99.90;;;;;;5091897;28;20194;-77
2022/09/20 01:42:32;;;;;;;6.27;1.53;;;10.10;99.90;;;;;;5075650;28;20222;-76
2022/09/20 01:45:17;;;;;;;4.07;1.50;;;10.10;99.90;;;;;;5097664;28;20174;-77
2022/09/20 01:47:55;;;;;;;5.43;1.77;;;10.10;99.90;;;;;;5097680;28;20477;-77
2022/09/20 01:50:41;;;;;;;3.90;1.50;;;10.10;99.90;;;;;;5097885;28;20239;-76
2022/09/20 01:53:39;;;;;;;4.33;1.53;;;10.10;99.90;;;;;;5096852;28;20253;-77
2022/09/20 01:56:21;;;;;;;1.93;1.23;;;10.10;99.90;;;;;;5096456;28;20188;-78
2022/09/20 01:59:05;;;;;;;8.10;1.53;;;10.10;99.90;;;;;;5098311;28;20154;-77
2022/09/20 02:01:52;;;;;;;4.73;1.80;;;10.00;99.90;;;;;;5097120;28;20190;-76
2022/09/20 02:05:05;;;;;;;4.23;1.80;;;10.00;99.90;;;;;;5097716;28;20655;-77
2022/09/20 02:08:03;;;;;;;4.63;1.60;;;10.10;99.90;;;;;;5050727;28;20263;-77
2022/09/20 02:10:35;;;;;;;3.47;1.20;;;10.10;99.90;;;;;;5096167;28;20194;-76
2022/09/20 02:13:10;;;;;;;3.27;1.20;;;10.00;99.90;;;;;;5096104;28;20178;-77
2022/09/20 02:15:57;;;;;;;5.93;1.57;;;10.00;99.90;;;;;;5097062;28;20162;-76
2022/09/20 02:18:43;;;;;;;8.70;1.97;;;10.00;99.90;;;;;;5097121;28;20224;-77
2022/09/20 02:21:32;;;;;;;9.60;1.73;;;10.00;99.90;;;;;;5097229;28;20243;-76
2022/09/20 02:24:15;;;;;;;4.37;1.60;;;10.00;99.90;;;;;;5095495;28;20208;-77
2022/09/20 02:27:05;;;;;;;2.87;1.20;;;10.00;99.90;;;;;;5097228;28;20178;-77
2022/09/20 02:29:50;;;;;;;3.63;1.57;;;10.00;99.90;;;;;;5097613;28;20186;-77
2022/09/20 02:32:54;;;;;;;7.60;1.67;;;10.00;99.90;;;;;;5095669;28;20178;-77
2022/09/20 02:35:34;;;;;;;6.90;1.33;;;10.00;99.90;;;;;;5063098;28;20235;-77
2022/09/20 02:38:10;;;;;;;2.80;1.40;;;10.00;99.90;;;;;;5096210;28;20223;-77
2022/09/20 02:40:51;;;;;;;3.73;1.20;;;10.00;99.90;;;;;;5096137;28;20220;-78
2022/09/20 02:43:54;;;;;;;5.13;2.13;;;9.90;99.90;;;;;;5097951;28;20186;-77
2022/09/20 02:46:40;;;;;;;5.17;1.60;;;9.90;99.90;;;;;;5097246;28;20237;-77
2022/09/20 02:49:36;;;;;;;6.27;1.53;;;9.90;99.90;;;;;;5095841;28;20166;-77
2022/09/20 02:52:12;;;;;;;4.80;2.27;;;9.90;99.90;;;;;;5097472;28;20660;-78
2022/09/20 02:55:05;;;;;;;6.40;1.83;;;9.90;99.90;;;;;;5097326;28;20158;-77
2022/09/20 02:57:52;;;;;;;7.00;1.93;;;9.90;99.90;;;;;;5095946;28;20170;-78
2022/09/20 03:00:31;;;;;;;7.13;2.10;;;9.90;99.90;;;;;;5097546;28;20247;-77
2022/09/20 03:03:07;;;;;;;3.30;1.57;;;9.90;99.90;;;;;;5098219;28;20549;-76
2022/09/20 03:05:51;;;;;;;5.13;2.00;;;9.90;99.90;;;;;;5097753;28;20152;-76
2022/09/20 03:08:39;;;;;;;2.93;1.63;;;9.90;99.90;;;;;;5097190;28;20177;-78
2022/09/20 03:11:04;;;;;;;10.70;1.33;;;9.90;99.90;;;;;;5097189;28;20193;-77
2022/09/20 03:13:42;;;;;;;9.57;1.73;;;9.90;99.90;;;;;;5094408;28;20174;-77
2022/09/20 03:16:12;;;;;;;2.63;1.33;;;9.90;99.90;;;;;;5096491;28;20163;-77
2022/09/20 03:19:03;;;;;;;4.90;1.67;;;9.90;99.90;;;;;;5095814;28;20162;-77
2022/09/20 03:21:53;;;;;;;5.70;1.47;;;9.90;99.90;;;;;;5095540;28;20221;-78
2022/09/20 03:24:33;;;;;;;7.20;1.87;;;9.90;99.90;;;;;;5095475;28;20198;-77
2022/09/20 03:27:17;;;;;;;1.93;1.60;;;9.90;99.90;;;;;;5094900;28;20646;-76
2022/09/20 03:30:01;;;;;;;10.63;1.80;;;9.90;99.90;;;;;;5095122;28;20190;-76
2022/09/20 03:33:11;;;;;;;4.30;1.77;;;9.90;99.90;;;;;;5095692;28;20158;-77
2022/09/20 03:35:48;;;;;;;4.77;1.53;;;9.90;99.90;;;;;;5063475;28;20425;-76
2022/09/20 03:38:19;;;;;;;7.90;1.73;;;10.00;99.90;;;;;;5095351;28;20170;-76
2022/09/20 03:40:54;;;;;;;8.30;2.10;;;9.90;99.90;;;;;;5093402;28;20210;-77
2022/09/20 03:43:38;;;;;;;8.23;1.87;;;9.90;99.90;;;;;;5095082;28;20655;-77
2022/09/20 03:46:20;;;;;;;6.33;1.70;;;9.90;99.90;;;;;;5094504;28;20159;-76
2022/09/20 03:48:57;;;;;;;9.17;2.10;;;10.00;99.90;;;;;;5094622;28;20166;-77
2022/09/20 03:51:34;;;;;;;7.17;2.00;;;10.00;99.90;;;;;;5093380;28;20235;-76
2022/09/20 03:54:37;;;;;;;6.67;2.03;;;9.90;99.90;;;;;;5093575;28;20166;-76
2022/09/20 03:57:29;;;;;;;8.23;2.10;;;9.90;99.90;;;;;;5094571;28;20182;-77
2022/09/20 04:00:06;;;;;;;9.53;1.93;;;10.00;99.90;;;;;;5095617;28;20524;-77
2022/09/20 04:03:06;;;;;;;3.43;1.53;;;10.00;99.90;;;;;;5094909;28;20265;-77
2022/09/20 04:05:59;;;;;;;4.53;1.80;;;10.00;99.90;;;;;;5091075;28;20174;-78
2022/09/20 04:08:46;;;;;;;9.53;2.67;;;10.00;99.90;;;;;;5095149;28;20643;-78
2022/09/20 04:11:43;;;;;;;6.40;1.63;;;10.00;99.90;;;;;;5094756;28;20227;-77
2022/09/20 04:14:20;;;;;;;3.33;1.87;;;10.10;99.90;;;;;;5094977;28;20292;-76
2022/09/20 04:17:00;;;;;;;5.53;1.57;;;10.10;99.90;;;;;;5094658;28;20155;-77
2022/09/20 04:19:47;;;;;;;5.60;1.63;;;10.10;99.90;;;;;;5095215;28;20155;-77
2022/09/20 04:22:13;;;;;;;4.27;2.10;;;10.10;99.90;;;;;;5095249;28;20159;-77
2022/09/20 04:25:00;;;;;;;6.57;1.80;;;10.20;99.90;;;;;;5094668;28;20536;-76
2022/09/20 04:27:38;;;;;;;6.23;1.90;;;10.10;99.90;;;;;;5094975;28;20162;-78
2022/09/20 04:30:29;;;;;;;7.73;2.07;;;10.20;99.90;;;;;;5095011;28;20239;-77
2022/09/20 04:33:02;;;;;;;2.87;1.70;;;10.10;99.90;;;;;;5093933;28;20177;-77
2022/09/20 04:38:21;;;;;;;2.87;1.30;;;10.10;99.90;;;;;;5094509;28;20204;-77
2022/09/20 04:41:17;;;;;;;4.03;1.67;;;10.20;99.90;;;;;;5093711;28;20201;-77
2022/09/20 04:44:10;;;;;;;4.33;2.00;;;10.10;99.90;;;;;;5095639;28;20201;-77
2022/09/20 04:46:57;;;;;;;2.73;1.47;;;10.10;99.90;;;;;;5096370;28;20312;-77
2022/09/20 04:49:54;;;;;;;2.37;1.33;;;10.10;99.90;;;;;;5094237;28;20628;-77
2022/09/20 04:52:38;;;;;;;6.40;1.70;;;10.10;99.90;;;;;;5092506;28;20162;-77
2022/09/20 04:55:09;;;;;;;5.37;1.70;;;10.10;99.90;;;;;;5093584;28;20182;-78
2022/09/20 04:57:47;;;;;;;5.77;1.63;;;10.10;99.90;;;;;;5092129;28;20170;-77
2022/09/20 05:00:22;;;;;;;6.13;2.37;;;10.10;99.90;;;;;;5092180;28;20206;-77
2022/09/20 05:03:26;;;;;;;6.50;1.83;;;10.10;99.90;;;;;;5092172;28;20300;-77
2022/09/20 05:06:14;;;;;;;10.10;1.97;;;10.20;99.90;;;;;;5095813;28;20508;-78
2022/09/20 05:09:04;;;;;;;11.43;1.70;;;10.20;99.90;;;;;;5096435;28;20146;-77
2022/09/20 05:11:56;;;;;;;5.43;1.70;;;10.20;99.90;;;;;;5094502;28;20187;-78
2022/09/20 05:15:01;;;;;;;2.67;1.73;;;10.20;99.90;;;;;;5096387;28;20170;-78
2022/09/20 05:17:30;;;;;;;4.80;1.60;;;10.20;99.90;;;;;;5093297;28;20587;-75
2022/09/20 05:20:23;;;;;;;3.67;1.87;;;10.20;99.90;;;;;;5096489;28;20219;-77
2022/09/20 05:23:12;;;;;;;4.33;1.80;;;10.20;99.90;;;;;;5098616;28;20512;-77
2022/09/20 05:25:57;;;;;;;3.97;2.20;;;10.20;99.90;;;;;;5097562;28;20158;-78
2022/09/20 05:28:44;;;;;;;6.37;2.80;;;10.30;99.90;;;;;;5094388;28;20170;-77
2022/09/20 05:31:29;;;;;;;9.37;3.40;;;10.40;99.90;;;;;;5097413;28;20537;-77
2022/09/20 05:34:41;;;;;;;7.13;3.50;;;10.40;99.90;;;;;;5096943;28;20264;-76
2022/09/20 05:37:12;;;;;;;9.80;3.90;;;10.40;99.90;;;;;;5098271;28;20155;-78
2022/09/20 05:40:04;;;;;;;10.20;4.10;;;10.50;99.90;;;;;;5099291;28;20288;-77
2022/09/20 05:42:59;;;;;;;10.90;4.20;;;10.60;99.90;;;;;;5072236;28;20269;-77
2022/09/20 05:46:01;;;;;;;13.63;4.60;;;10.70;99.90;;;;;;5095296;28;20162;-78
2022/09/20 05:48:53;;;;;;;9.80;3.50;;;10.70;99.90;;;;;;5094878;28;20190;-77
2022/09/20 05:51:56;;;;;;;7.47;3.47;;;10.70;99.90;;;;;;5092671;28;20293;-77
2022/09/20 05:54:50;;;;;;;9.33;4.23;;;10.80;99.90;;;;;;5092639;28;20170;-77
2022/09/20 05:57:56;;;;;;;10.43;4.10;;;10.80;99.90;;;;;;5093255;28;20515;-78
2022/09/20 06:00:27;;;;;;;11.97;4.50;;;10.80;99.90;;;;;;5094650;28;20201;-78
2022/09/20 06:03:30;;;;;;;11.20;4.57;;;10.90;99.90;;;;;;5095151;28;20219;-78
2022/09/20 06:06:11;;;;;;;12.23;5.10;;;10.90;99.90;;;;;;5094605;28;20260;-78
2022/09/20 06:08:58;;;;;;;7.33;5.00;;;11.00;99.90;;;;;;5096193;28;20159;-78
2022/09/20 06:11:45;;;;;;;12.10;5.17;;;11.00;99.90;;;;;;5096354;28;20197;-78
2022/09/20 06:14:38;;;;;;;10.53;4.33;;;11.00;99.90;;;;;;5096718;28;20163;-78
2022/09/20 06:17:23;;;;;;;11.00;5.20;;;11.10;99.90;;;;;;5095854;28;20167;-78
2022/09/20 06:20:04;;;;;;;11.63;4.63;;;11.10;99.90;;;;;;5097098;28;20191;-78
2022/09/20 06:22:42;;;;;;;8.67;5.30;;;11.10;99.90;;;;;;5095888;28;20170;-78
2022/09/20 06:25:07;;;;;;;16.80;5.73;;;11.10;99.90;;;;;;5097527;28;20241;-79
2022/09/20 06:27:40;;;;;;;6.60;4.43;;;11.20;99.90;;;;;;5096710;28;20194;-78
2022/09/20 06:30:13;;;;;;;10.47;3.93;;;11.20;99.90;;;;;;5101251;28;20186;-78
2022/09/20 06:32:56;;;;;;;8.23;3.80;;;11.20;99.90;;;;;;5099971;28;20265;-77
2022/09/20 06:35:26;;;;;;;7.70;2.83;;;11.30;99.90;;;;;;5098941;28;20170;-78
2022/09/20 06:41:29;;;;;;;7.47;2.50;;;11.30;99.90;;;;;;5081628;28;20356;-78
2022/09/20 06:43:57;;;;;;;8.50;2.70;;;11.30;99.90;;;;;;5082217;28;20187;-78
2022/09/20 06:46:24;;;;;;;6.50;3.27;;;11.40;99.90;;;;;;5099511;28;20183;-78
2022/09/20 06:48:50;;;;;;;10.63;4.13;;;11.30;99.90;;;;;;5101062;28;20171;-78
2022/09/20 06:51:16;;;;;;;13.03;4.13;;;11.30;99.90;;;;;;5102485;28;20196;-78
2022/09/20 06:53:41;;;;;;;8.77;3.13;;;11.30;99.90;;;;;;5107293;28;20200;-79
2022/09/20 06:56:19;;;;;;;11.70;3.40;;;11.30;99.90;;;;;;5107332;28;20170;-79
2022/09/20 06:58:45;;;;;;;15.63;5.70;;;11.30;99.90;;;;;;5088909;28;20174;-79
2022/09/20 07:01:12;;;;;;;7.20;3.97;;;11.40;99.90;;;;;;5084731;28;20199;-79
2022/09/20 07:03:38;;;;;;;10.37;4.70;;;11.40;99.90;;;;;;5084228;28;20186;-79
2022/09/20 07:06:05;;;;;;;13.40;5.13;;;11.40;99.90;;;;;;5084096;28;20168;-79
2022/09/20 07:08:30;;;;;;;13.13;5.60;;;11.40;99.90;;;;;;5103803;28;20632;-79
2022/09/20 07:10:56;;;;;;;10.77;4.83;;;11.40;99.90;;;;;;5106012;28;20194;-79
2022/09/20 07:13:21;;;;;;;8.03;4.63;;;11.50;99.90;;;;;;5113673;28;20181;-77
2022/09/20 07:15:47;;;;;;;8.27;4.13;;;11.40;99.90;;;;;;5112850;28;20166;-78
2022/09/20 07:18:12;;;;;;;11.13;5.10;;;11.40;99.90;;;;;;5101038;28;20190;-78
2022/09/20 07:20:38;;;;;;;9.33;4.57;;;11.50;99.90;;;;;;5098111;28;20654;-78
2022/09/20 07:23:03;;;;;;;11.67;4.73;;;11.50;99.90;;;;;;5097069;28;20217;-78
2022/09/20 07:25:30;;;;;;;11.83;4.17;;;11.50;99.90;;;;;;5097393;28;20257;-78
2022/09/20 07:27:56;;;;;;;8.77;4.50;;;11.60;99.90;;;;;;5097200;28;20186;-77
2022/09/20 07:30:22;;;;;;;8.30;4.07;;;11.60;99.90;;;;;;5096296;28;20232;-78
2022/09/20 07:32:49;;;;;;;13.70;4.33;;;11.70;99.90;;;;;;5097745;28;20170;-78
2022/09/20 07:35:14;;;;;;;11.10;3.67;;;11.70;99.90;;;;;;5099403;28;20170;-79
2022/09/20 07:37:40;;;;;;;7.73;3.60;;;11.80;99.90;;;;;;5099001;28;20177;-77
2022/09/20 07:40:07;;;;;;;6.03;3.87;;;11.90;99.90;;;;;;5095643;28;20214;-79
2022/09/20 07:42:33;;;;;;;12.40;4.10;;;11.90;99.90;;;;;;5096097;28;20206;-78
2022/09/20 07:45:01;;;;;;;14.70;4.80;;;12.00;99.90;;;;;;5096756;28;20556;-78
2022/09/20 07:47:30;;;;;;;14.03;3.97;;;12.10;99.90;;;;;;5096672;28;20583;-78
2022/09/20 07:49:56;;;;;;;8.10;3.50;;;12.30;99.90;;;;;;5097088;28;20277;-78
2022/09/20 07:52:22;;;;;;;6.37;3.23;;;12.40;99.90;;;;;;5095922;28;20205;-78
2022/09/20 07:54:48;;;;;;;6.27;3.00;;;12.50;99.90;;;;;;5097564;28;20178;-78
2022/09/20 07:57:14;;;;;;;6.10;3.17;;;12.50;99.90;;;;;;5096232;28;20177;-78
2022/09/20 07:59:40;;;;;;;10.97;3.23;;;12.60;99.90;;;;;;5099420;28;20224;-77
2022/09/20 08:02:05;;;;;;;8.37;3.00;;;12.70;99.90;;;;;;5095073;28;20599;-78
2022/09/20 08:04:31;;;;;;;9.93;2.83;;;12.70;99.90;;;;;;5098501;28;20209;-78
2022/09/20 08:06:57;;;;;;;6.17;2.30;;;12.70;99.90;;;;;;5096180;28;20268;-78
2022/09/20 08:09:23;;;;;;;9.00;2.87;;;12.90;99.90;;;;;;5098848;28;20201;-78
2022/09/20 08:11:49;;;;;;;5.73;1.97;;;13.00;99.90;;;;;;5098832;28;20178;-78
2022/09/20 08:14:16;;;;;;;6.20;2.10;;;13.10;99.90;;;;;;5100813;28;20579;-78
2022/09/20 08:16:45;;;;;;;5.07;1.60;;;13.20;99.90;;;;;;5101344;28;20581;-78
2022/09/20 08:19:16;;;;;;;4.60;1.90;;;13.20;99.90;;;;;;5101078;28;20170;-78
2022/09/20 08:21:43;;;;;;;10.93;1.90;;;13.20;99.90;;;;;;5098860;28;20185;-77
2022/09/20 08:24:08;;;;;;;7.33;2.13;;;13.20;99.90;;;;;;5101090;28;20304;-78
2022/09/20 08:26:34;;;;;;;4.90;1.60;;;13.20;99.90;;;;;;5099738;28;20202;-78
2022/09/20 08:29:00;;;;;;;7.20;2.10;;;13.20;99.90;;;;;;5101022;28;20616;-78
2022/09/20 08:31:33;;;;;;;5.20;2.10;;;13.20;99.90;;;;;;5099082;28;20198;-76
2022/09/20 08:34:02;;;;;;;6.13;2.00;;;13.20;99.90;;;;;;5103250;28;20177;-78
2022/09/20 08:36:29;;;;;;;8.23;2.10;;;13.20;99.90;;;;;;5103604;28;20184;-78
2022/09/20 08:38:55;;;;;;;7.60;2.43;;;13.30;99.90;;;;;;5097951;28;20667;-78
2022/09/20 08:41:26;;;;;;;5.30;2.23;;;13.40;99.90;;;;;;5096566;28;20210;-78
2022/09/20 08:43:59;;;;;;;7.23;2.27;;;13.40;99.90;;;;;;5094643;28;20285;-78
2022/09/20 08:46:34;;;;;;;7.67;2.23;;;13.40;99.90;;;;;;5094570;28;20244;-78
2022/09/20 08:49:03;;;;;;;6.77;1.97;;;13.50;99.90;;;;;;5094375;28;20185;-78
2022/09/20 08:51:37;;;;;;;5.73;2.07;;;13.60;99.90;;;;;;5094740;28;20206;-78
2022/09/20 08:54:06;;;;;;;6.00;2.17;;;13.70;99.90;;;;;;5096084;28;20216;-78
2022/09/20 08:56:35;;;;;;;7.23;2.03;;;13.70;99.90;;;;;;5094235;28;20174;-78
2022/09/20 08:59:02;;;;;;;4.17;1.83;;;13.90;99.90;;;;;;5097272;28;20192;-78
2022/09/20 09:01:31;;;;;;;5.93;1.80;;;14.10;99.90;;;;;;5094440;28;20208;-78
2022/09/20 09:04:22;;;;;;;7.73;1.73;;;14.10;99.90;;;;;;5096627;28;20651;-77
2022/09/20 09:06:49;;;;;;;6.50;1.33;;;14.20;99.90;;;;;;5096124;28;20650;-78
2022/09/20 09:09:26;;;;;;;4.17;1.33;;;14.30;1.00;;;;;;5096942;28;20219;-78
2022/09/20 09:11:54;;;;;;;7.90;1.90;;;14.40;1.00;;;;;;5095149;28;20208;-78
2022/09/20 09:14:47;;;;;;;5.30;1.60;;;14.40;64.10;;;;;;5096105;28;20195;-77
2022/09/20 09:17:18;;;;;;;6.57;1.63;;;14.30;1.00;;;;;;5094281;28;20712;-77
2022/09/20 09:20:12;;;;;;;4.10;1.33;;;14.40;1.00;;;;;;5096150;28;20186;-77
2022/09/20 09:22:41;;;;;;;5.40;1.30;;;14.40;1.00;;;;;;5092955;28;20208;-78
2022/09/20 09:25:25;;;;;;;6.43;1.53;;;14.30;1.00;;;;;;5096245;28;20170;-78
2022/09/20 09:27:52;;;;;;;7.13;1.30;;;14.40;99.90;;;;;;5096878;28;20258;-78
2022/09/20 09:30:31;;;;;;;4.77;1.17;;;14.40;1.00;;;;;;5094096;28;20197;-78
2022/09/20 09:33:24;;;;;;;6.17;1.30;;;14.40;99.90;;;;;;5095026;28;20209;-78
2022/09/20 09:35:55;;;;;;;4.40;1.30;;;14.40;99.90;;;;;;5095353;28;20174;-78
2022/09/20 09:38:24;;;;;;;1.37;0.80;;;14.50;1.00;;;;;;5095306;28;20536;-78
2022/09/20 09:40:58;;;;;;;5.83;1.63;;;14.50;89.80;;;;;;5094796;28;20691;-78
2022/09/20 09:43:28;;;;;;;5.63;1.30;;;14.50;99.90;;;;;;5095674;28;20192;-78
2022/09/20 09:46:14;;;;;;;4.50;1.20;;;14.50;99.90;;;;;;5096620;28;20166;-78
2022/09/20 09:48:39;;;;;;;5.23;1.10;;;14.60;1.00;;;;;;5096186;28;20186;-77
2022/09/20 09:51:16;;;;;;;6.07;1.20;;;14.60;1.00;;;;;;5095713;28;20201;-78
2022/09/20 09:53:43;;;;;;;3.83;0.90;;;14.70;1.00;;;;;;5094325;28;20178;-78
2022/09/20 09:56:46;;;;;;;2.23;1.00;;;14.60;1.00;;;;;;5095907;28;20178;-78
2022/09/20 09:59:23;;;;;;;5.13;1.13;;;14.50;1.00;;;;;;5096059;28;20252;-78
2022/09/20 10:01:57;;;;;;;6.87;1.10;;;14.50;1.00;;;;;;5094740;28;20604;-78
2022/09/20 10:04:30;;;;;;;5.30;1.20;;;14.40;1.00;;;;;;5096555;28;20197;-78
2022/09/20 10:07:01;;;;;;;4.73;0.97;;;14.40;99.90;;;;;;5098385;28;20166;-78
2022/09/20 10:10:03;;;;;;;6.33;1.07;;;14.30;1.00;;;;;;5098562;28;20157;-78
2022/09/20 10:12:53;;;;;;;6.53;1.20;;;14.10;99.90;;;;;;5097135;28;20189;-77
2022/09/20 10:15:28;;;;;;;7.87;1.20;;;14.00;99.90;;;;;;5097916;28;20166;-78
2022/09/20 10:18:24;;;;;;;5.47;1.27;;;13.80;99.90;;;;;;5097562;28;20150;-77
2022/09/20 10:21:35;;;;;;;10.10;1.40;;;13.80;99.90;;;;;;5096700;28;20241;-77
2022/09/20 10:24:47;;;;;;;3.80;1.03;;;13.80;99.90;;;;;;5064137;28;20213;-77
2022/09/20 10:27:27;;;;;;;6.53;1.13;;;13.70;99.90;;;;;;5057841;28;20189;-77
2022/09/20 10:30:02;;;;;;;7.57;1.80;;;13.80;99.90;;;;;;5095782;28;20189;-78
2022/09/20 10:32:54;;;;;;;4.77;1.70;;;13.90;99.90;;;;;;5094591;28;20184;-77
2022/09/20 10:35:34;;;;;;;6.23;1.30;;;13.90;99.90;;;;;;5096996;28;20189;-78
2022/09/20 10:38:13;;;;;;;7.43;1.60;;;14.00;99.90;;;;;;5099079;28;20163;-78
2022/09/20 10:44:04;;;;;;;8.07;1.60;;;14.20;99.90;;;;;;5096588;28;20232;-78
2022/09/20 10:46:55;;;;;;;5.73;1.67;;;14.30;99.90;;;;;;5097962;28;20524;-78
2022/09/20 10:49:39;;;;;;;5.03;1.60;;;14.30;99.90;;;;;;5095640;28;20181;-79
2022/09/20 10:52:27;;;;;;;6.77;1.73;;;14.40;1.00;;;;;;5096928;28;20182;-78
2022/09/20 10:55:28;;;;;;;4.27;1.50;;;14.50;14.40;;;;;;5101916;28;20185;-78
2022/09/20 10:57:57;;;;;;;3.87;0.90;;;14.40;1.00;;;;;;5097306;28;20162;-79
2022/09/20 11:00:24;;;;;;;4.00;1.13;;;14.50;99.90;;;;;;5098134;28;20198;-79
2022/09/20 11:03:08;;;;;;;3.97;1.20;;;14.50;80.40;;;;;;5097859;28;20230;-77
2022/09/20 11:06:00;;;;;;;3.57;1.10;;;14.60;1.00;;;;;;5099484;28;20158;-79
2022/09/20 11:08:31;;;;;;;3.33;0.77;;;14.60;1.00;;;;;;5100875;28;20155;-77
2022/09/20 11:11:08;;;;;;;3.00;0.90;;;14.60;99.90;;;;;;5099386;28;20198;-79
2022/09/20 11:14:02;;;;;;;4.53;0.90;;;14.70;1.00;;;;;;5099511;28;20495;-78
2022/09/20 11:16:58;;;;;;;5.70;1.47;;;14.70;1.00;;;;;;5094045;28;20193;-77
2022/09/20 11:19:49;;;;;;;4.27;0.70;;;14.70;99.90;;;;;;5097088;28;20162;-77
2022/09/20 11:22:20;;;;;;;5.60;1.03;;;14.60;99.90;;;;;;5067256;28;20620;-77
2022/09/20 11:24:57;;;;;;;6.87;0.80;;;14.80;1.00;;;;;;5098517;28;20194;-78
2022/09/20 11:27:30;;;;;;;4.57;1.07;;;14.80;1.00;;;;;;5099654;28;20236;-78
2022/09/20 11:30:07;;;;;;;3.13;0.70;;;14.90;1.00;;;;;;5098281;28;20201;-78
2022/09/20 11:32:41;;;;;;;4.20;0.83;;;15.10;1.00;;;;;;5094717;28;20264;-79
2022/09/20 11:35:28;;;;;;;2.47;0.67;;;15.10;1.70;;;;;;5097629;28;20631;-79
2022/09/20 11:38:31;;;;;;;3.03;1.00;;;15.20;1.00;;;;;;5095123;28;20162;-79
2022/09/20 11:41:10;;;;;;;2.03;0.60;;;15.20;1.00;;;;;;5095632;28;20687;-78
2022/09/20 11:43:41;;;;;;;1.73;0.73;;;15.10;99.90;;;;;;5098130;28;20201;-78
2022/09/20 11:46:11;;;;;;;2.87;0.60;;;15.00;99.90;;;;;;5113732;28;20146;-78
2022/09/20 11:48:48;;;;;;;2.90;0.70;;;14.90;99.90;;;;;;5109734;28;20623;-79
2022/09/20 11:51:58;;;;;;;2.57;0.67;;;15.00;1.00;;;;;;5094889;28;20198;-79
2022/09/20 11:54:59;;;;;;;2.97;1.00;;;15.00;99.90;;;;;;5068829;28;20214;-78
2022/09/20 11:57:25;;;;;;;1.17;0.87;;;15.00;76.90;;;;;;5087615;28;20187;-79
2022/09/20 11:59:55;;;;;;;2.63;0.80;;;15.10;99.90;;;;;;5097078;28;20194;-78
2022/09/20 12:02:23;;;;;;;4.20;0.90;;;15.10;99.90;;;;;;5098004;28;20210;-79
2022/09/20 12:04:52;;;;;;;4.03;0.73;;;15.20;99.90;;;;;;5109949;28;20550;-79
2022/09/20 12:07:32;;;;;;;1.57;0.60;;;15.30;1.00;;;;;;5104274;28;20175;-79
2022/09/20 12:10:01;;;;;;;5.23;0.80;;;15.30;99.90;;;;;;5094773;28;20668;-79
2022/09/20 12:12:41;;;;;;;2.93;0.97;;;15.40;99.90;;;;;;5093123;28;20178;-78
2022/09/20 12:15:26;;;;;;;3.03;1.10;;;15.40;99.90;;;;;;5095834;28;20155;-78
2022/09/20 12:17:52;;;;;;;2.97;0.80;;;15.50;1.00;;;;;;5094571;28;20211;-78
2022/09/20 12:20:41;;;;;;;5.77;0.97;;;15.50;1.00;;;;;;5094000;28;20205;-79
2022/09/20 12:23:44;;;;;;;1.47;0.60;;;15.60;49.00;;;;;;5076306;28;20195;-79
2022/09/20 12:26:21;;;;;;;4.13;1.07;;;15.70;99.90;;;;;;5074714;28;20159;-78
2022/09/20 12:28:51;;;;;;;3.43;0.93;;;15.70;1.00;;;;;;5075473;28;20173;-78
2022/09/20 12:31:29;;;;;;;3.10;0.77;;;15.80;99.90;;;;;;5081611;28;20293;-79
2022/09/20 12:33:59;;;;;;;3.50;0.77;;;15.90;1.00;;;;;;5096033;28;20176;-79
2022/09/20 12:36:27;;;;;;;2.17;0.70;;;16.00;1.00;;;;;;5094268;28;20188;-79
2022/09/20 12:39:05;;;;;;;2.37;0.70;;;15.90;99.90;;;;;;5093751;28;20640;-79
2022/09/20 12:41:48;;;;;;;4.77;0.87;;;16.00;1.00;;;;;;5094131;28;20202;-78
2022/09/20 12:44:36;;;;;;;1.87;0.50;;;16.10;25.60;;;;;;5095680;28;20698;-79
2022/09/20 12:47:11;;;;;;;2.67;0.70;;;16.10;99.90;;;;;;5054834;28;20539;-78
2022/09/20 12:52:49;;;;;;;3.07;1.37;;;16.20;1.00;;;;;;5093651;28;20700;-80
2022/09/20 12:55:42;;;;;;;1.50;0.70;;;16.20;1.00;;;;;;5096400;28;20154;-78
2022/09/20 12:58:13;;;;;;;3.50;0.80;;;16.10;1.00;;;;;;5094796;28;20613;-79
2022/09/20 13:00:41;;;;;;;1.40;0.50;;;16.20;1.00;;;;;;5095363;28;20614;-78
2022/09/20 13:03:13;;;;;;;1.40;0.67;;;16.20;90.60;;;;;;5095837;28;20244;-79
2022/09/20 13:05:44;;;;;;;2.93;0.70;;;16.30;1.00;;;;;;5094278;28;20262;-77
2022/09/20 13:08:14;;;;;;;1.37;0.63;;;16.30;1.00;;;;;;5095175;28;20185;-79
2022/09/20 13:10:48;;;;;;;1.37;0.70;;;16.40;1.00;;;;;;5112903;22;20679;-79
2022/09/20 13:13:49;;;;;;;3.23;0.90;;;16.40;69.60;;;;;;5035246;28;20270;-77
2022/09/20 13:16:29;;;;;;;2.27;0.80;;;16.50;1.00;;;;;;5019121;28;20179;-78
2022/09/20 13:19:36;;;;;;;6.37;0.90;;;16.60;62.70;;;;;;5053136;28;20166;-78
2022/09/20 13:22:12;;;;;;;1.73;0.60;;;16.60;1.00;;;;;;5063126;28;20199;-78
2022/09/20 13:24:45;;;;;;;1.60;0.70;;;16.70;1.00;;;;;;5071690;28;20285;-78
2022/09/20 13:27:22;;;;;;;2.43;0.70;;;16.70;1.00;;;;;;5072933;28;20163;-77
2022/09/20 13:29:48;;;;;;;1.80;0.50;;;16.60;1.00;;;;;;5072766;28;20175;-78
2022/09/20 13:32:22;;;;;;;2.20;0.70;;;16.40;99.90;;;;;;5069640;28;20195;-79
2022/09/20 13:35:05;;;;;;;2.57;0.63;;;16.40;1.00;;;;;;5072861;28;20262;-77
2022/09/20 13:37:32;;;;;;;4.63;0.97;;;16.40;99.90;;;;;;5072878;28;20305;-77
2022/09/20 13:39:58;;;;;;;3.17;0.83;;;16.40;99.90;;;;;;5076039;28;20186;-78
2022/09/20 13:42:28;;;;;;;4.07;0.63;;;16.40;99.90;;;;;;5056712;28;20182;-77
2022/09/20 13:44:54;;;;;;;4.13;0.60;;;16.50;1.00;;;;;;5056869;28;20197;-77
2022/09/20 13:47:21;;;;;;;2.70;0.50;;;16.40;68.80;;;;;;5058131;28;20163;-79
2022/09/20 13:49:47;;;;;;;4.80;1.07;;;16.50;99.90;;;;;;5057489;28;20581;-78
2022/09/20 13:52:22;;;;;;;2.17;0.83;;;16.60;1.00;;;;;;5076368;28;20639;-79
2022/09/20 13:54:48;;;;;;;4.43;0.80;;;16.80;1.00;;;;;;5078041;28;20162;-78
2022/09/20 13:57:20;;;;;;;2.23;0.47;;;16.70;1.00;;;;;;5078131;28;20511;-78